sensor_id;sensor_type;location;lat;lon;timestamp;P1;durP1;ratioP1;P2;durP2;ratioP2
44120;SDS011;29783;52.504;13.478;2022-10-14T00:01:35;54.70;;;37.70;;
44120;SDS011;29783;52.504;13.478;2022-10-14T00:04:01;53.30;;;36.75;;
44120;SDS011;29783;52.504;13.478;2022-10-14T00:06:28;52.67;;;37.25;;
44120;SDS011;29783;52.504;13.478;2022-10-14T00:08:58;60.28;;;39.80;;
44120;SDS011;29783;52.504;13.478;2022-10-14T00:11:26;52.75;;;38.78;;
44120;SDS011;29783;52.504;13.478;2022-10-14T00:13:54;56.53;;;39.05;;
44120;SDS011;29783;52.504;13.478;2022-10-14T00:16:27;48.58;;;39.17;;
44120;SDS011;29783;52.504;13.478;2022-10-14T00:18:55;51.30;;;39.00;;
44120;SDS011;29783;52.504;13.478;2022-10-14T00:21:22;51.72;;;37.38;;
44120;SDS011;29783;52.504;13.478;2022-10-14T00:23:48;60.38;;;40.38;;
44120;SDS011;29783;52.504;13.478;2022-10-14T00:26:21;51.90;;;38.80;;
44120;SDS011;29783;52.504;13.478;2022-10-14T00:28:51;54.25;;;38.05;;
44120;SDS011;29783;52.504;13.478;2022-10-14T00:31:17;48.25;;;36.65;;
44120;SDS011;29783;52.504;13.478;2022-10-14T00:33:44;47.20;;;36.63;;
44120;SDS011;29783;52.504;13.478;2022-10-14T00:36:11;59.35;;;37.78;;
44120;SDS011;29783;52.504;13.478;2022-10-14T00:38:38;49.38;;;36.65;;
44120;SDS011;29783;52.504;13.478;2022-10-14T00:41:04;51.63;;;38.28;;
44120;SDS011;29783;52.504;13.478;2022-10-14T00:48:41;52.70;;;37.72;;
44120;SDS011;29783;52.504;13.478;2022-10-14T00:51:07;60.22;;;38.15;;
44120;SDS011;29783;52.504;13.478;2022-10-14T00:53:33;49.50;;;37.78;;
44120;SDS011;29783;52.504;13.478;2022-10-14T00:56:02;53.17;;;39.65;;
44120;SDS011;29783;52.504;13.478;2022-10-14T00:58:29;50.55;;;37.88;;
44120;SDS011;29783;52.504;13.478;2022-10-14T01:00:55;59.53;;;40.13;;
44120;SDS011;29783;52.504;13.478;2022-10-14T01:03:21;58.78;;;38.65;;
44120;SDS011;29783;52.504;13.478;2022-10-14T01:05:49;53.28;;;38.40;;
44120;SDS011;29783;52.504;13.478;2022-10-14T01:08:35;53.45;;;38.78;;
44120;SDS011;29783;52.504;13.478;2022-10-14T01:11:13;51.65;;;37.13;;
44120;SDS011;29783;52.504;13.478;2022-10-14T01:13:49;65.30;;;40.03;;
44120;SDS011;29783;52.504;13.478;2022-10-14T01:16:33;51.95;;;37.78;;
44120;SDS011;29783;52.504;13.478;2022-10-14T01:19:18;52.50;;;37.33;;
44120;SDS011;29783;52.504;13.478;2022-10-14T01:21:59;45.30;;;36.78;;
44120;SDS011;29783;52.504;13.478;2022-10-14T01:24:42;54.88;;;37.78;;
44120;SDS011;29783;52.504;13.478;2022-10-14T01:27:30;51.67;;;36.08;;
44120;SDS011;29783;52.504;13.478;2022-10-14T01:30:23;48.35;;;37.22;;
44120;SDS011;29783;52.504;13.478;2022-10-14T01:35:36;53.35;;;37.78;;
44120;SDS011;29783;52.504;13.478;2022-10-14T01:41:20;53.72;;;34.92;;
44120;SDS011;29783;52.504;13.478;2022-10-14T01:43:41;56.90;;;37.67;;
44120;SDS011;29783;52.504;13.478;2022-10-14T01:46:10;53.75;;;38.20;;
44120;SDS011;29783;52.504;13.478;2022-10-14T01:48:37;47.72;;;38.13;;
44120;SDS011;29783;52.504;13.478;2022-10-14T01:51:13;50.40;;;37.95;;
44120;SDS011;29783;52.504;13.478;2022-10-14T01:53:59;57.83;;;39.17;;
44120;SDS011;29783;52.504;13.478;2022-10-14T01:56:33;54.15;;;39.78;;
44120;SDS011;29783;52.504;13.478;2022-10-14T01:59:00;50.63;;;36.75;;
44120;SDS011;29783;52.504;13.478;2022-10-14T02:01:27;52.50;;;36.47;;
44120;SDS011;29783;52.504;13.478;2022-10-14T02:03:53;57.22;;;36.83;;
44120;SDS011;29783;52.504;13.478;2022-10-14T02:06:29;51.65;;;38.05;;
44120;SDS011;29783;52.504;13.478;2022-10-14T02:16:59;63.67;;;36.85;;
44120;SDS011;29783;52.504;13.478;2022-10-14T02:19:43;52.80;;;37.15;;
44120;SDS011;29783;52.504;13.478;2022-10-14T02:25:07;56.25;;;39.47;;
44120;SDS011;29783;52.504;13.478;2022-10-14T02:27:45;54.83;;;36.88;;
44120;SDS011;29783;52.504;13.478;2022-10-14T02:30:14;48.90;;;36.80;;
44120;SDS011;29783;52.504;13.478;2022-10-14T02:32:42;54.65;;;37.60;;
44120;SDS011;29783;52.504;13.478;2022-10-14T02:35:09;45.50;;;36.45;;
44120;SDS011;29783;52.504;13.478;2022-10-14T02:37:37;47.08;;;36.28;;
44120;SDS011;29783;52.504;13.478;2022-10-14T02:40:08;54.90;;;37.78;;
44120;SDS011;29783;52.504;13.478;2022-10-14T02:42:39;46.97;;;35.92;;
44120;SDS011;29783;52.504;13.478;2022-10-14T02:45:05;54.53;;;37.15;;
44120;SDS011;29783;52.504;13.478;2022-10-14T02:47:34;48.03;;;36.22;;
44120;SDS011;29783;52.504;13.478;2022-10-14T02:50:00;54.75;;;37.85;;
44120;SDS011;29783;52.504;13.478;2022-10-14T02:52:26;44.20;;;35.90;;
44120;SDS011;29783;52.504;13.478;2022-10-14T02:54:51;54.58;;;37.17;;
44120;SDS011;29783;52.504;13.478;2022-10-14T02:57:17;48.38;;;37.28;;
44120;SDS011;29783;52.504;13.478;2022-10-14T02:59:43;48.28;;;36.92;;
44120;SDS011;29783;52.504;13.478;2022-10-14T03:02:09;51.95;;;36.38;;
44120;SDS011;29783;52.504;13.478;2022-10-14T03:04:35;46.90;;;36.78;;
44120;SDS011;29783;52.504;13.478;2022-10-14T03:07:01;51.00;;;37.08;;
44120;SDS011;29783;52.504;13.478;2022-10-14T03:09:27;46.97;;;35.65;;
44120;SDS011;29783;52.504;13.478;2022-10-14T03:11:54;46.90;;;34.70;;
44120;SDS011;29783;52.504;13.478;2022-10-14T03:14:19;46.13;;;34.13;;
44120;SDS011;29783;52.504;13.478;2022-10-14T03:16:45;45.97;;;34.45;;
44120;SDS011;29783;52.504;13.478;2022-10-14T03:19:11;50.63;;;35.10;;
44120;SDS011;29783;52.504;13.478;2022-10-14T03:21:37;46.58;;;34.10;;
44120;SDS011;29783;52.504;13.478;2022-10-14T03:24:03;53.30;;;33.85;;
44120;SDS011;29783;52.504;13.478;2022-10-14T03:26:29;46.13;;;31.42;;
44120;SDS011;29783;52.504;13.478;2022-10-14T03:28:55;39.63;;;31.13;;
44120;SDS011;29783;52.504;13.478;2022-10-14T03:31:21;51.65;;;30.65;;
44120;SDS011;29783;52.504;13.478;2022-10-14T03:33:47;40.63;;;32.42;;
44120;SDS011;29783;52.504;13.478;2022-10-14T03:36:13;47.30;;;31.70;;
44120;SDS011;29783;52.504;13.478;2022-10-14T03:38:39;39.40;;;31.58;;
44120;SDS011;29783;52.504;13.478;2022-10-14T03:41:05;41.40;;;30.45;;
44120;SDS011;29783;52.504;13.478;2022-10-14T03:43:30;46.70;;;32.28;;
44120;SDS011;29783;52.504;13.478;2022-10-14T03:45:59;45.28;;;30.90;;
44120;SDS011;29783;52.504;13.478;2022-10-14T03:48:25;37.47;;;30.80;;
44120;SDS011;29783;52.504;13.478;2022-10-14T03:50:51;41.30;;;29.38;;
44120;SDS011;29783;52.504;13.478;2022-10-14T03:53:17;36.75;;;30.48;;
44120;SDS011;29783;52.504;13.478;2022-10-14T03:55:44;43.28;;;31.27;;
44120;SDS011;29783;52.504;13.478;2022-10-14T03:58:10;36.67;;;29.88;;
44120;SDS011;29783;52.504;13.478;2022-10-14T04:00:36;41.00;;;30.70;;
44120;SDS011;29783;52.504;13.478;2022-10-14T04:03:02;37.55;;;30.55;;
44120;SDS011;29783;52.504;13.478;2022-10-14T04:05:28;39.53;;;31.63;;
44120;SDS011;29783;52.504;13.478;2022-10-14T04:07:58;41.42;;;30.83;;
44120;SDS011;29783;52.504;13.478;2022-10-14T04:10:24;42.92;;;31.92;;
44120;SDS011;29783;52.504;13.478;2022-10-14T04:12:51;42.45;;;31.30;;
44120;SDS011;29783;52.504;13.478;2022-10-14T04:15:26;43.85;;;31.95;;
44120;SDS011;29783;52.504;13.478;2022-10-14T04:18:25;41.70;;;30.00;;
44120;SDS011;29783;52.504;13.478;2022-10-14T04:20:51;46.55;;;29.83;;
44120;SDS011;29783;52.504;13.478;2022-10-14T04:23:19;35.65;;;29.67;;
44120;SDS011;29783;52.504;13.478;2022-10-14T04:25:44;43.08;;;29.40;;
44120;SDS011;29783;52.504;13.478;2022-10-14T04:28:10;44.22;;;31.00;;
44120;SDS011;29783;52.504;13.478;2022-10-14T04:30:36;38.95;;;31.33;;
44120;SDS011;29783;52.504;13.478;2022-10-14T04:33:02;43.30;;;30.63;;
44120;SDS011;29783;52.504;13.478;2022-10-14T04:35:28;34.10;;;28.60;;
44120;SDS011;29783;52.504;13.478;2022-10-14T04:37:54;43.97;;;30.65;;
44120;SDS011;29783;52.504;13.478;2022-10-14T04:40:20;35.65;;;28.77;;
44120;SDS011;29783;52.504;13.478;2022-10-14T04:42:50;41.72;;;29.55;;
44120;SDS011;29783;52.504;13.478;2022-10-14T04:45:19;44.22;;;30.77;;
44120;SDS011;29783;52.504;13.478;2022-10-14T04:47:44;40.97;;;30.65;;
44120;SDS011;29783;52.504;13.478;2022-10-14T04:50:11;43.13;;;29.98;;
44120;SDS011;29783;52.504;13.478;2022-10-14T04:52:36;43.53;;;29.23;;
44120;SDS011;29783;52.504;13.478;2022-10-14T04:55:02;38.83;;;31.27;;
44120;SDS011;29783;52.504;13.478;2022-10-14T04:57:28;38.15;;;32.40;;
44120;SDS011;29783;52.504;13.478;2022-10-14T04:59:54;45.17;;;30.98;;
44120;SDS011;29783;52.504;13.478;2022-10-14T05:02:20;34.35;;;29.58;;
44120;SDS011;29783;52.504;13.478;2022-10-14T05:04:46;42.55;;;28.67;;
44120;SDS011;29783;52.504;13.478;2022-10-14T05:07:11;38.95;;;29.35;;
44120;SDS011;29783;52.504;13.478;2022-10-14T05:09:37;37.30;;;28.15;;
44120;SDS011;29783;52.504;13.478;2022-10-14T05:12:03;46.00;;;28.92;;
44120;SDS011;29783;52.504;13.478;2022-10-14T05:14:29;44.85;;;27.25;;
44120;SDS011;29783;52.504;13.478;2022-10-14T05:16:55;38.70;;;29.48;;
44120;SDS011;29783;52.504;13.478;2022-10-14T05:19:21;37.63;;;27.40;;
44120;SDS011;29783;52.504;13.478;2022-10-14T05:21:47;42.95;;;31.08;;
44120;SDS011;29783;52.504;13.478;2022-10-14T05:24:13;47.47;;;30.52;;
44120;SDS011;29783;52.504;13.478;2022-10-14T05:26:39;39.35;;;28.25;;
44120;SDS011;29783;52.504;13.478;2022-10-14T05:29:04;34.33;;;27.05;;
44120;SDS011;29783;52.504;13.478;2022-10-14T05:31:31;45.20;;;27.55;;
44120;SDS011;29783;52.504;13.478;2022-10-14T05:33:56;39.75;;;27.50;;
44120;SDS011;29783;52.504;13.478;2022-10-14T05:36:22;34.67;;;26.13;;
44120;SDS011;29783;52.504;13.478;2022-10-14T05:38:48;34.58;;;26.10;;
44120;SDS011;29783;52.504;13.478;2022-10-14T05:41:14;37.40;;;26.92;;
44120;SDS011;29783;52.504;13.478;2022-10-14T05:43:40;33.75;;;27.33;;
44120;SDS011;29783;52.504;13.478;2022-10-14T05:46:06;38.53;;;25.33;;
44120;SDS011;29783;52.504;13.478;2022-10-14T05:48:32;48.25;;;24.83;;
44120;SDS011;29783;52.504;13.478;2022-10-14T05:50:58;36.60;;;25.33;;
44120;SDS011;29783;52.504;13.478;2022-10-14T05:53:26;37.72;;;25.33;;
44120;SDS011;29783;52.504;13.478;2022-10-14T05:55:59;30.02;;;24.73;;
44120;SDS011;29783;52.504;13.478;2022-10-14T05:58:25;32.28;;;24.17;;
44120;SDS011;29783;52.504;13.478;2022-10-14T06:00:51;37.20;;;24.73;;
44120;SDS011;29783;52.504;13.478;2022-10-14T06:03:17;31.55;;;23.48;;
44120;SDS011;29783;52.504;13.478;2022-10-14T06:05:43;32.55;;;23.17;;
44120;SDS011;29783;52.504;13.478;2022-10-14T06:08:09;30.20;;;24.08;;
44120;SDS011;29783;52.504;13.478;2022-10-14T06:10:35;49.40;;;25.88;;
44120;SDS011;29783;52.504;13.478;2022-10-14T06:13:01;36.33;;;22.13;;
44120;SDS011;29783;52.504;13.478;2022-10-14T06:15:27;29.88;;;23.05;;
44120;SDS011;29783;52.504;13.478;2022-10-14T06:17:53;35.83;;;22.98;;
44120;SDS011;29783;52.504;13.478;2022-10-14T06:20:19;39.40;;;23.23;;
44120;SDS011;29783;52.504;13.478;2022-10-14T06:22:44;31.80;;;21.17;;
44120;SDS011;29783;52.504;13.478;2022-10-14T06:25:10;31.65;;;21.33;;
44120;SDS011;29783;52.504;13.478;2022-10-14T06:27:36;32.50;;;22.75;;
44120;SDS011;29783;52.504;13.478;2022-10-14T06:30:02;29.95;;;21.27;;
44120;SDS011;29783;52.504;13.478;2022-10-14T06:32:28;31.05;;;21.25;;
44120;SDS011;29783;52.504;13.478;2022-10-14T06:34:54;31.92;;;23.15;;
44120;SDS011;29783;52.504;13.478;2022-10-14T06:37:20;34.83;;;21.08;;
44120;SDS011;29783;52.504;13.478;2022-10-14T06:39:45;31.70;;;22.38;;
44120;SDS011;29783;52.504;13.478;2022-10-14T06:42:11;25.63;;;20.42;;
44120;SDS011;29783;52.504;13.478;2022-10-14T06:44:37;42.35;;;22.08;;
44120;SDS011;29783;52.504;13.478;2022-10-14T06:47:04;32.22;;;22.23;;
44120;SDS011;29783;52.504;13.478;2022-10-14T06:49:30;30.63;;;20.40;;
44120;SDS011;29783;52.504;13.478;2022-10-14T06:51:56;35.13;;;21.80;;
44120;SDS011;29783;52.504;13.478;2022-10-14T06:54:22;36.05;;;22.70;;
44120;SDS011;29783;52.504;13.478;2022-10-14T06:56:48;40.55;;;22.20;;
44120;SDS011;29783;52.504;13.478;2022-10-14T06:59:14;32.60;;;20.70;;
44120;SDS011;29783;52.504;13.478;2022-10-14T07:01:40;31.55;;;21.75;;
44120;SDS011;29783;52.504;13.478;2022-10-14T07:04:05;48.45;;;22.00;;
44120;SDS011;29783;52.504;13.478;2022-10-14T07:06:31;30.40;;;21.52;;
44120;SDS011;29783;52.504;13.478;2022-10-14T07:08:57;29.30;;;20.42;;
44120;SDS011;29783;52.504;13.478;2022-10-14T07:11:23;46.60;;;20.92;;
44120;SDS011;29783;52.504;13.478;2022-10-14T07:13:49;37.00;;;22.10;;
44120;SDS011;29783;52.504;13.478;2022-10-14T07:16:15;38.50;;;19.98;;
44120;SDS011;29783;52.504;13.478;2022-10-14T07:18:40;29.00;;;19.98;;
44120;SDS011;29783;52.504;13.478;2022-10-14T07:21:06;41.38;;;20.88;;
44120;SDS011;29783;52.504;13.478;2022-10-14T07:23:33;36.45;;;19.95;;
44120;SDS011;29783;52.504;13.478;2022-10-14T07:25:59;32.15;;;21.13;;
44120;SDS011;29783;52.504;13.478;2022-10-14T07:28:25;40.47;;;18.83;;
44120;SDS011;29783;52.504;13.478;2022-10-14T07:30:58;23.45;;;17.45;;
44120;SDS011;29783;52.504;13.478;2022-10-14T07:33:25;36.63;;;18.43;;
44120;SDS011;29783;52.504;13.478;2022-10-14T07:35:50;27.10;;;18.15;;
44120;SDS011;29783;52.504;13.478;2022-10-14T07:38:16;33.63;;;18.13;;
44120;SDS011;29783;52.504;13.478;2022-10-14T07:40:42;28.25;;;18.40;;
44120;SDS011;29783;52.504;13.478;2022-10-14T07:43:08;26.77;;;17.05;;
44120;SDS011;29783;52.504;13.478;2022-10-14T07:45:38;28.45;;;19.27;;
44120;SDS011;29783;52.504;13.478;2022-10-14T07:48:04;30.80;;;17.95;;
44120;SDS011;29783;52.504;13.478;2022-10-14T07:50:30;35.22;;;17.08;;
44120;SDS011;29783;52.504;13.478;2022-10-14T07:52:56;24.73;;;18.88;;
44120;SDS011;29783;52.504;13.478;2022-10-14T07:55:22;39.30;;;18.77;;
44120;SDS011;29783;52.504;13.478;2022-10-14T07:57:48;31.35;;;19.20;;
44120;SDS011;29783;52.504;13.478;2022-10-14T08:00:13;37.20;;;17.75;;
44120;SDS011;29783;52.504;13.478;2022-10-14T08:02:39;25.80;;;18.15;;
44120;SDS011;29783;52.504;13.478;2022-10-14T08:05:05;21.48;;;17.63;;
44120;SDS011;29783;52.504;13.478;2022-10-14T08:07:31;23.38;;;18.05;;
44120;SDS011;29783;52.504;13.478;2022-10-14T08:09:57;31.17;;;18.63;;
44120;SDS011;29783;52.504;13.478;2022-10-14T08:12:23;35.53;;;17.17;;
44120;SDS011;29783;52.504;13.478;2022-10-14T08:14:49;27.38;;;18.63;;
44120;SDS011;29783;52.504;13.478;2022-10-14T08:17:14;25.80;;;17.50;;
44120;SDS011;29783;52.504;13.478;2022-10-14T08:19:41;34.47;;;18.55;;
44120;SDS011;29783;52.504;13.478;2022-10-14T08:22:07;36.78;;;17.45;;
44120;SDS011;29783;52.504;13.478;2022-10-14T08:24:33;33.58;;;17.88;;
44120;SDS011;29783;52.504;13.478;2022-10-14T08:26:59;29.42;;;18.13;;
44120;SDS011;29783;52.504;13.478;2022-10-14T08:29:25;25.05;;;18.05;;
44120;SDS011;29783;52.504;13.478;2022-10-14T08:31:51;29.20;;;17.50;;
44120;SDS011;29783;52.504;13.478;2022-10-14T08:34:19;30.45;;;17.15;;
44120;SDS011;29783;52.504;13.478;2022-10-14T08:36:46;27.27;;;18.83;;
44120;SDS011;29783;52.504;13.478;2022-10-14T08:39:13;27.52;;;18.05;;
44120;SDS011;29783;52.504;13.478;2022-10-14T08:44:18;41.10;;;18.70;;
44120;SDS011;29783;52.504;13.478;2022-10-14T08:46:57;28.25;;;18.20;;
44120;SDS011;29783;52.504;13.478;2022-10-14T08:52:25;29.60;;;19.30;;
44120;SDS011;29783;52.504;13.478;2022-10-14T08:54:56;24.90;;;18.20;;
44120;SDS011;29783;52.504;13.478;2022-10-14T08:57:46;36.45;;;18.45;;
44120;SDS011;29783;52.504;13.478;2022-10-14T09:00:18;29.43;;;18.43;;
44120;SDS011;29783;52.504;13.478;2022-10-14T09:02:45;31.15;;;19.00;;
44120;SDS011;29783;52.504;13.478;2022-10-14T09:05:17;29.27;;;18.13;;
44120;SDS011;29783;52.504;13.478;2022-10-14T09:07:50;30.15;;;17.83;;
44120;SDS011;29783;52.504;13.478;2022-10-14T09:13:02;41.88;;;17.15;;
44120;SDS011;29783;52.504;13.478;2022-10-14T09:15:53;36.72;;;17.55;;
44120;SDS011;29783;52.504;13.478;2022-10-14T09:18:28;26.52;;;15.25;;
44120;SDS011;29783;52.504;13.478;2022-10-14T09:21:48;30.90;;;15.15;;
44120;SDS011;29783;52.504;13.478;2022-10-14T09:24:18;25.88;;;16.90;;
44120;SDS011;29783;52.504;13.478;2022-10-14T09:27:04;28.33;;;16.00;;
44120;SDS011;29783;52.504;13.478;2022-10-14T09:29:38;28.40;;;16.00;;
44120;SDS011;29783;52.504;13.478;2022-10-14T09:32:16;29.65;;;15.52;;
44120;SDS011;29783;52.504;13.478;2022-10-14T09:34:46;30.48;;;16.65;;
44120;SDS011;29783;52.504;13.478;2022-10-14T09:37:20;21.30;;;14.98;;
44120;SDS011;29783;52.504;13.478;2022-10-14T09:39:47;26.02;;;15.43;;
44120;SDS011;29783;52.504;13.478;2022-10-14T09:42:18;27.40;;;16.38;;
44120;SDS011;29783;52.504;13.478;2022-10-14T09:47:42;41.45;;;17.02;;
44120;SDS011;29783;52.504;13.478;2022-10-14T09:50:09;45.85;;;17.42;;
44120;SDS011;29783;52.504;13.478;2022-10-14T09:52:50;37.97;;;18.45;;
44120;SDS011;29783;52.504;13.478;2022-10-14T09:55:21;25.48;;;16.10;;
44120;SDS011;29783;52.504;13.478;2022-10-14T09:57:55;24.58;;;16.10;;
44120;SDS011;29783;52.504;13.478;2022-10-14T10:00:38;24.60;;;15.07;;
44120;SDS011;29783;52.504;13.478;2022-10-14T10:03:05;29.55;;;16.67;;
44120;SDS011;29783;52.504;13.478;2022-10-14T10:05:32;35.28;;;17.45;;
44120;SDS011;29783;52.504;13.478;2022-10-14T10:10:28;28.60;;;14.75;;
44120;SDS011;29783;52.504;13.478;2022-10-14T10:12:59;23.13;;;16.25;;
44120;SDS011;29783;52.504;13.478;2022-10-14T10:15:26;24.77;;;14.73;;
44120;SDS011;29783;52.504;13.478;2022-10-14T10:17:52;23.92;;;13.77;;
44120;SDS011;29783;52.504;13.478;2022-10-14T10:20:19;25.17;;;14.25;;
44120;SDS011;29783;52.504;13.478;2022-10-14T10:22:57;23.27;;;14.73;;
44120;SDS011;29783;52.504;13.478;2022-10-14T10:25:49;32.35;;;14.50;;
44120;SDS011;29783;52.504;13.478;2022-10-14T10:28:20;25.75;;;14.30;;
44120;SDS011;29783;52.504;13.478;2022-10-14T10:30:59;22.23;;;13.88;;
44120;SDS011;29783;52.504;13.478;2022-10-14T10:33:48;24.73;;;14.38;;
44120;SDS011;29783;52.504;13.478;2022-10-14T10:36:33;26.33;;;13.82;;
44120;SDS011;29783;52.504;13.478;2022-10-14T10:42:06;25.25;;;12.80;;
44120;SDS011;29783;52.504;13.478;2022-10-14T10:55:42;22.48;;;12.27;;
44120;SDS011;29783;52.504;13.478;2022-10-14T11:01:31;18.52;;;11.65;;
44120;SDS011;29783;52.504;13.478;2022-10-14T11:04:16;19.90;;;11.52;;
44120;SDS011;29783;52.504;13.478;2022-10-14T11:09:54;30.65;;;12.57;;
44120;SDS011;29783;52.504;13.478;2022-10-14T11:23:36;23.25;;;11.80;;
44120;SDS011;29783;52.504;13.478;2022-10-14T11:34:41;23.40;;;11.55;;
44120;SDS011;29783;52.504;13.478;2022-10-14T11:37:19;18.15;;;10.40;;
44120;SDS011;29783;52.504;13.478;2022-10-14T11:45:43;19.17;;;11.02;;
44120;SDS011;29783;52.504;13.478;2022-10-14T11:48:21;17.40;;;10.13;;
44120;SDS011;29783;52.504;13.478;2022-10-14T11:50:56;22.58;;;10.82;;
44120;SDS011;29783;52.504;13.478;2022-10-14T12:02:24;12.60;;;8.88;;
44120;SDS011;29783;52.504;13.478;2022-10-14T12:04:55;15.43;;;9.70;;
44120;SDS011;29783;52.504;13.478;2022-10-14T12:07:27;14.82;;;9.85;;
44120;SDS011;29783;52.504;13.478;2022-10-14T12:10:05;18.58;;;9.98;;
44120;SDS011;29783;52.504;13.478;2022-10-14T12:12:43;17.63;;;10.52;;
44120;SDS011;29783;52.504;13.478;2022-10-14T12:15:17;14.30;;;9.88;;
44120;SDS011;29783;52.504;13.478;2022-10-14T12:17:46;19.42;;;10.80;;
44120;SDS011;29783;52.504;13.478;2022-10-14T12:26:33;16.70;;;9.88;;
44120;SDS011;29783;52.504;13.478;2022-10-14T12:29:11;14.32;;;9.45;;
44120;SDS011;29783;52.504;13.478;2022-10-14T12:31:40;15.93;;;9.52;;
44120;SDS011;29783;52.504;13.478;2022-10-14T12:36:38;19.40;;;9.63;;
44120;SDS011;29783;52.504;13.478;2022-10-14T12:44:13;12.68;;;8.18;;
44120;SDS011;29783;52.504;13.478;2022-10-14T12:46:43;14.73;;;7.78;;
44120;SDS011;29783;52.504;13.478;2022-10-14T12:49:18;13.27;;;7.82;;
44120;SDS011;29783;52.504;13.478;2022-10-14T12:51:54;12.95;;;6.65;;
44120;SDS011;29783;52.504;13.478;2022-10-14T12:54:21;13.52;;;6.35;;
44120;SDS011;29783;52.504;13.478;2022-10-14T12:56:56;10.75;;;6.30;;
44120;SDS011;29783;52.504;13.478;2022-10-14T12:59:30;14.13;;;5.70;;
44120;SDS011;29783;52.504;13.478;2022-10-14T13:02:17;12.18;;;5.90;;
44120;SDS011;29783;52.504;13.478;2022-10-14T13:04:47;10.95;;;6.15;;
44120;SDS011;29783;52.504;13.478;2022-10-14T13:09:43;9.45;;;5.30;;
44120;SDS011;29783;52.504;13.478;2022-10-14T13:12:11;16.08;;;6.32;;
44120;SDS011;29783;52.504;13.478;2022-10-14T13:14:56;12.65;;;5.55;;
44120;SDS011;29783;52.504;13.478;2022-10-14T13:25:58;7.45;;;4.57;;
44120;SDS011;29783;52.504;13.478;2022-10-14T13:28:37;10.98;;;4.53;;
44120;SDS011;29783;52.504;13.478;2022-10-14T13:31:14;9.52;;;5.15;;
44120;SDS011;29783;52.504;13.478;2022-10-14T13:33:50;11.25;;;4.88;;
44120;SDS011;29783;52.504;13.478;2022-10-14T13:39:13;8.50;;;4.68;;
44120;SDS011;29783;52.504;13.478;2022-10-14T13:41:39;11.02;;;5.03;;
44120;SDS011;29783;52.504;13.478;2022-10-14T13:44:08;9.48;;;4.47;;
44120;SDS011;29783;52.504;13.478;2022-10-14T13:46:40;11.45;;;5.10;;
44120;SDS011;29783;52.504;13.478;2022-10-14T13:49:13;8.20;;;4.65;;
44120;SDS011;29783;52.504;13.478;2022-10-14T13:51:49;7.82;;;4.20;;
44120;SDS011;29783;52.504;13.478;2022-10-14T13:54:23;11.27;;;4.60;;
44120;SDS011;29783;52.504;13.478;2022-10-14T13:56:57;9.27;;;4.07;;
44120;SDS011;29783;52.504;13.478;2022-10-14T13:59:23;7.45;;;4.57;;
44120;SDS011;29783;52.504;13.478;2022-10-14T14:01:54;7.72;;;4.40;;
44120;SDS011;29783;52.504;13.478;2022-10-14T14:04:24;11.00;;;4.17;;
44120;SDS011;29783;52.504;13.478;2022-10-14T14:06:54;7.40;;;4.57;;
44120;SDS011;29783;52.504;13.478;2022-10-14T14:09:21;7.20;;;4.47;;
44120;SDS011;29783;52.504;13.478;2022-10-14T14:11:53;7.32;;;4.35;;
44120;SDS011;29783;52.504;13.478;2022-10-14T14:14:34;6.75;;;4.70;;
44120;SDS011;29783;52.504;13.478;2022-10-14T14:17:03;7.40;;;4.95;;
44120;SDS011;29783;52.504;13.478;2022-10-14T14:24:52;8.43;;;4.82;;
44120;SDS011;29783;52.504;13.478;2022-10-14T14:27:45;14.50;;;4.78;;
44120;SDS011;29783;52.504;13.478;2022-10-14T14:30:26;6.90;;;4.43;;
44120;SDS011;29783;52.504;13.478;2022-10-14T14:33:05;10.70;;;4.78;;
44120;SDS011;29783;52.504;13.478;2022-10-14T14:35:37;12.23;;;4.90;;
44120;SDS011;29783;52.504;13.478;2022-10-14T14:38:26;12.85;;;4.85;;
44120;SDS011;29783;52.504;13.478;2022-10-14T14:41:05;9.32;;;4.65;;
44120;SDS011;29783;52.504;13.478;2022-10-14T14:43:40;9.38;;;4.95;;
44120;SDS011;29783;52.504;13.478;2022-10-14T14:46:07;11.40;;;4.85;;
44120;SDS011;29783;52.504;13.478;2022-10-14T14:48:43;8.18;;;4.65;;
44120;SDS011;29783;52.504;13.478;2022-10-14T14:51:11;8.70;;;4.90;;
44120;SDS011;29783;52.504;13.478;2022-10-14T14:53:38;10.20;;;4.78;;
44120;SDS011;29783;52.504;13.478;2022-10-14T14:56:05;14.90;;;4.28;;
44120;SDS011;29783;52.504;13.478;2022-10-14T14:58:50;6.95;;;4.07;;
44120;SDS011;29783;52.504;13.478;2022-10-14T15:01:22;11.52;;;3.72;;
44120;SDS011;29783;52.504;13.478;2022-10-14T15:03:51;7.07;;;4.45;;
44120;SDS011;29783;52.504;13.478;2022-10-14T15:06:20;17.48;;;3.78;;
44120;SDS011;29783;52.504;13.478;2022-10-14T15:08:58;6.45;;;4.00;;
44120;SDS011;29783;52.504;13.478;2022-10-14T15:11:49;6.75;;;3.60;;
44120;SDS011;29783;52.504;13.478;2022-10-14T15:17:22;6.88;;;3.83;;
44120;SDS011;29783;52.504;13.478;2022-10-14T15:19:52;12.85;;;4.10;;
44120;SDS011;29783;52.504;13.478;2022-10-14T15:22:22;6.28;;;3.30;;
44120;SDS011;29783;52.504;13.478;2022-10-14T15:32:45;6.65;;;3.60;;
44120;SDS011;29783;52.504;13.478;2022-10-14T15:35:15;12.60;;;3.90;;
44120;SDS011;29783;52.504;13.478;2022-10-14T15:37:43;13.52;;;3.65;;
44120;SDS011;29783;52.504;13.478;2022-10-14T15:43:33;11.35;;;3.90;;
44120;SDS011;29783;52.504;13.478;2022-10-14T15:46:04;9.75;;;3.97;;
44120;SDS011;29783;52.504;13.478;2022-10-14T15:48:49;9.43;;;4.00;;
44120;SDS011;29783;52.504;13.478;2022-10-14T15:51:18;8.25;;;4.43;;
44120;SDS011;29783;52.504;13.478;2022-10-14T15:53:45;9.82;;;4.20;;
44120;SDS011;29783;52.504;13.478;2022-10-14T15:56:11;6.30;;;3.88;;
44120;SDS011;29783;52.504;13.478;2022-10-14T15:58:37;8.35;;;4.22;;
44120;SDS011;29783;52.504;13.478;2022-10-14T16:01:03;8.52;;;4.25;;
44120;SDS011;29783;52.504;13.478;2022-10-14T16:03:30;10.07;;;4.53;;
44120;SDS011;29783;52.504;13.478;2022-10-14T16:05:57;9.52;;;3.80;;
44120;SDS011;29783;52.504;13.478;2022-10-14T16:08:24;9.75;;;4.53;;
44120;SDS011;29783;52.504;13.478;2022-10-14T16:10:52;7.72;;;3.78;;
44120;SDS011;29783;52.504;13.478;2022-10-14T16:13:19;7.45;;;3.92;;
44120;SDS011;29783;52.504;13.478;2022-10-14T16:15:50;12.63;;;4.47;;
44120;SDS011;29783;52.504;13.478;2022-10-14T16:18:18;6.18;;;4.53;;
44120;SDS011;29783;52.504;13.478;2022-10-14T16:20:47;9.80;;;5.00;;
44120;SDS011;29783;52.504;13.478;2022-10-14T16:23:15;8.10;;;4.85;;
44120;SDS011;29783;52.504;13.478;2022-10-14T16:25:43;13.23;;;4.85;;
44120;SDS011;29783;52.504;13.478;2022-10-14T16:28:11;9.32;;;5.28;;
44120;SDS011;29783;52.504;13.478;2022-10-14T16:30:41;9.25;;;5.55;;
44120;SDS011;29783;52.504;13.478;2022-10-14T16:33:13;12.50;;;5.18;;
44120;SDS011;29783;52.504;13.478;2022-10-14T16:35:39;14.82;;;5.05;;
44120;SDS011;29783;52.504;13.478;2022-10-14T16:38:08;7.70;;;5.00;;
44120;SDS011;29783;52.504;13.478;2022-10-14T16:40:36;9.85;;;5.68;;
44120;SDS011;29783;52.504;13.478;2022-10-14T16:43:02;14.27;;;5.53;;
44120;SDS011;29783;52.504;13.478;2022-10-14T16:45:28;12.80;;;6.32;;
44120;SDS011;29783;52.504;13.478;2022-10-14T16:47:54;16.33;;;6.40;;